Time;durP1;ratioP1;P1;durP2;ratioP2;P2;SDS_P1;SDS_P2;PMS_P1;PMS_P2;Temp;Humidity;BMP_temperature;BMP_pressure;BME280_temperature;BME280_humidity;BME280_pressure;Samples;Min_cycle;Max_cycle;Signal;HPM_P1;HPM_P2
2024/01/07 00:01:13;;;;;;;20.60;8.00;;;5.90;1.00;;;;;;5008018;28;20194;-75
2024/01/07 00:03:41;;;;;;;19.77;7.30;;;5.90;1.00;;;;;;5010306;28;20187;-74
2024/01/07 00:06:06;;;;;;;16.20;8.20;;;5.90;1.00;;;;;;5010627;28;20671;-76
2024/01/07 00:08:32;;;;;;;17.97;8.17;;;6.10;1.00;;;;;;5009169;28;20453;-76
2024/01/07 00:10:57;;;;;;;15.30;7.13;;;5.90;1.00;;;;;;5008822;28;20277;-77
2024/01/07 00:13:23;;;;;;;15.30;7.40;;;5.90;1.00;;;;;;5009264;28;20266;-76
2024/01/07 00:15:48;;;;;;;17.03;7.13;;;6.00;1.00;;;;;;5009825;28;20274;-76
2024/01/07 00:18:14;;;;;;;15.77;7.30;;;5.90;1.00;;;;;;5010515;28;20182;-77
2024/01/07 00:20:39;;;;;;;16.17;6.60;;;5.90;1.00;;;;;;5007604;28;20257;-73
2024/01/07 00:23:05;;;;;;;16.53;7.23;;;6.00;1.00;;;;;;5010446;28;20193;-76
2024/01/07 00:25:30;;;;;;;13.27;6.97;;;5.80;1.00;;;;;;5010263;28;20202;-76
2024/01/07 00:27:56;;;;;;;20.27;8.00;;;5.90;1.00;;;;;;5009843;28;20633;-75
2024/01/07 00:30:21;;;;;;;13.07;6.47;;;5.80;1.00;;;;;;5001708;28;20328;-75
2024/01/07 00:32:47;;;;;;;14.80;7.20;;;5.80;1.00;;;;;;5004071;28;20242;-75
2024/01/07 00:35:12;;;;;;;16.87;7.70;;;5.80;1.00;;;;;;5010322;28;20249;-77
2024/01/07 00:37:38;;;;;;;15.60;7.40;;;5.80;1.00;;;;;;4992050;28;20190;-76
2024/01/07 00:40:05;;;;;;;15.80;7.20;;;5.80;1.00;;;;;;5007940;28;20210;-75
2024/01/07 00:42:30;;;;;;;16.87;7.63;;;5.80;1.00;;;;;;5003555;28;20197;-76
2024/01/07 00:44:56;;;;;;;14.77;7.20;;;5.80;1.00;;;;;;5009791;28;20796;-76
2024/01/07 00:47:21;;;;;;;16.80;7.27;;;5.80;1.00;;;;;;5009057;28;20206;-76
2024/01/07 00:49:47;;;;;;;14.97;7.37;;;5.70;1.00;;;;;;5008956;28;20607;-75
2024/01/07 00:52:12;;;;;;;14.30;7.27;;;6.10;1.00;;;;;;5008041;28;20182;-76
2024/01/07 00:54:38;;;;;;;16.57;7.20;;;5.70;1.00;;;;;;5009377;28;20182;-76
2024/01/07 00:57:04;;;;;;;13.93;6.67;;;5.90;1.00;;;;;;5008938;28;20189;-75
2024/01/07 00:59:29;;;;;;;15.93;6.90;;;5.70;1.00;;;;;;4990653;28;20664;-76
2024/01/07 01:01:55;;;;;;;19.17;7.93;;;5.70;1.00;;;;;;5009087;28;20240;-76
2024/01/07 01:04:21;;;;;;;13.20;6.63;;;5.70;1.00;;;;;;5009783;28;20484;-76
2024/01/07 01:06:46;;;;;;;17.03;7.40;;;5.80;1.00;;;;;;5008108;28;20278;-75
2024/01/07 01:09:12;;;;;;;15.13;7.03;;;5.80;1.00;;;;;;5008286;28;20182;-74
2024/01/07 01:11:38;;;;;;;16.57;6.90;;;5.80;1.00;;;;;;5006323;28;20715;-75
2024/01/07 01:14:03;;;;;;;15.00;7.50;;;6.00;1.00;;;;;;5008795;28;20516;-75
2024/01/07 01:16:29;;;;;;;13.70;6.63;;;5.80;1.00;;;;;;5008982;28;20256;-75
2024/01/07 01:18:55;;;;;;;12.27;6.30;;;5.80;1.00;;;;;;5008652;28;20206;-77
2024/01/07 01:21:20;;;;;;;15.13;6.60;;;5.80;1.00;;;;;;5008113;28;20194;-75
2024/01/07 01:23:47;;;;;;;15.77;7.40;;;5.80;1.00;;;;;;5008852;28;20174;-75
2024/01/07 01:26:12;;;;;;;15.17;7.50;;;5.80;1.00;;;;;;5008941;28;20179;-75
2024/01/07 01:28:38;;;;;;;16.77;7.40;;;5.70;1.00;;;;;;5009063;28;20536;-76
2024/01/07 01:31:03;;;;;;;16.00;6.77;;;5.70;1.00;;;;;;5000629;28;20241;-76
2024/01/07 01:33:29;;;;;;;12.97;6.70;;;5.70;1.00;;;;;;5004414;28;20194;-76
2024/01/07 01:35:54;;;;;;;13.90;6.80;;;5.80;1.00;;;;;;4982877;28;20191;-76
2024/01/07 01:38:20;;;;;;;12.27;6.13;;;5.80;1.00;;;;;;5008893;28;20194;-75
2024/01/07 01:40:54;;;;;;;11.13;6.50;;;5.70;1.00;;;;;;4982374;28;20290;-75
2024/01/07 01:43:24;;;;;;;15.20;6.70;;;5.70;1.00;;;;;;5006075;28;20177;-77
2024/01/07 01:45:50;;;;;;;15.63;7.47;;;5.70;1.00;;;;;;4989676;28;20433;-75
2024/01/07 01:48:15;;;;;;;12.97;6.17;;;5.80;1.00;;;;;;5008703;28;21137;-75
2024/01/07 01:50:41;;;;;;;12.50;6.00;;;5.70;1.00;;;;;;4989889;28;20214;-76
2024/01/07 01:53:06;;;;;;;13.83;6.80;;;5.70;1.00;;;;;;5008511;28;20187;-76
2024/01/07 01:55:32;;;;;;;13.30;6.10;;;5.70;1.00;;;;;;5008661;28;20182;-75
2024/01/07 01:58:03;;;;;;;13.83;6.30;;;5.70;1.00;;;;;;5008167;28;20248;-75
2024/01/07 02:00:29;;;;;;;12.63;6.20;;;5.70;1.00;;;;;;4989961;28;20550;-75
2024/01/07 02:02:55;;;;;;;12.77;5.77;;;5.70;1.00;;;;;;5008212;28;20434;-76
2024/01/07 02:05:20;;;;;;;11.83;5.80;;;5.70;1.00;;;;;;5007951;28;20475;-75
2024/01/07 02:07:46;;;;;;;11.43;5.77;;;5.70;1.00;;;;;;5008707;28;20292;-75
2024/01/07 02:10:12;;;;;;;14.53;5.83;;;6.40;1.00;;;;;;4990109;28;20561;-76
2024/01/07 02:12:38;;;;;;;10.83;5.10;;;5.70;1.00;;;;;;4991017;28;20201;-75
2024/01/07 02:15:04;;;;;;;11.90;5.90;;;5.70;1.00;;;;;;5007907;28;20426;-77
2024/01/07 02:17:29;;;;;;;10.87;5.40;;;5.70;1.00;;;;;;5006883;28;20213;-76
2024/01/07 02:19:55;;;;;;;11.57;5.63;;;5.70;1.00;;;;;;5008104;28;20951;-76
2024/01/07 02:22:21;;;;;;;10.43;5.07;;;5.90;1.00;;;;;;5008468;28;20272;-75
2024/01/07 02:24:46;;;;;;;12.63;6.10;;;5.80;1.00;;;;;;5008698;28;20186;-76
2024/01/07 02:27:12;;;;;;;10.13;5.00;;;5.60;1.00;;;;;;5007730;28;20333;-76
2024/01/07 02:29:37;;;;;;;10.50;5.10;;;5.60;1.00;;;;;;5007999;28;20238;-75
2024/01/07 02:32:03;;;;;;;9.87;5.03;;;5.60;1.00;;;;;;5007781;28;20185;-75
2024/01/07 02:34:29;;;;;;;10.77;5.17;;;5.60;1.00;;;;;;5008225;28;20580;-76
2024/01/07 02:36:54;;;;;;;10.30;5.20;;;7.90;1.00;;;;;;5009010;28;20657;-75
2024/01/07 02:39:20;;;;;;;13.47;5.20;;;5.60;1.00;;;;;;4994514;28;20182;-75
2024/01/07 02:41:46;;;;;;;9.10;5.00;;;5.60;1.00;;;;;;4992300;28;20212;-76
2024/01/07 02:44:11;;;;;;;9.13;4.77;;;5.90;1.00;;;;;;5008112;28;20273;-76
2024/01/07 02:46:37;;;;;;;9.40;4.83;;;5.60;1.00;;;;;;5011566;28;20552;-76
2024/01/07 02:49:02;;;;;;;9.70;4.77;;;5.70;1.00;;;;;;4993864;28;20262;-75
2024/01/07 02:51:28;;;;;;;7.50;3.93;;;5.60;1.00;;;;;;5011516;28;20210;-75
2024/01/07 02:53:53;;;;;;;8.33;4.67;;;5.60;1.00;;;;;;5011921;28;20187;-74
2024/01/07 02:56:19;;;;;;;6.77;4.20;;;5.60;1.00;;;;;;5007487;28;20195;-76
2024/01/07 02:58:44;;;;;;;8.43;4.63;;;5.60;1.00;;;;;;5011790;28;20996;-75
2024/01/07 03:01:10;;;;;;;7.90;4.10;;;5.60;1.00;;;;;;4993100;28;20285;-76
2024/01/07 03:03:36;;;;;;;7.97;4.00;;;5.60;1.00;;;;;;5011798;28;20253;-75
2024/01/07 03:06:02;;;;;;;7.00;3.83;;;5.60;1.00;;;;;;5011246;28;20715;-77
2024/01/07 03:08:28;;;;;;;8.57;4.43;;;5.50;1.00;;;;;;5012010;28;20776;-76
2024/01/07 03:10:54;;;;;;;6.97;3.60;;;5.50;1.00;;;;;;5011081;28;20198;-77
2024/01/07 03:13:19;;;;;;;9.57;4.27;;;5.50;1.00;;;;;;5011109;28;20903;-75
2024/01/07 03:15:45;;;;;;;9.37;5.03;;;5.40;1.00;;;;;;5011517;28;20189;-75
2024/01/07 03:18:10;;;;;;;5.03;3.40;;;5.90;1.00;;;;;;5010821;28;20734;-76
2024/01/07 03:20:36;;;;;;;7.33;4.20;;;5.40;1.00;;;;;;5005908;28;20218;-75
2024/01/07 03:23:01;;;;;;;9.17;4.33;;;5.50;1.00;;;;;;5010290;28;20210;-76
2024/01/07 03:25:27;;;;;;;10.60;4.10;;;5.50;1.00;;;;;;5011448;28;20218;-76
2024/01/07 03:27:52;;;;;;;8.20;3.90;;;5.40;1.00;;;;;;5010932;28;20221;-77
2024/01/07 03:30:18;;;;;;;9.13;4.57;;;5.50;1.00;;;;;;4992391;28;20256;-75
2024/01/07 03:32:43;;;;;;;8.37;4.30;;;5.50;1.00;;;;;;5011340;28;20553;-76
2024/01/07 03:35:09;;;;;;;8.20;3.80;;;5.50;1.00;;;;;;4993040;28;20214;-76
2024/01/07 03:37:35;;;;;;;9.33;3.80;;;5.50;1.00;;;;;;5010593;28;20296;-76
2024/01/07 03:40:01;;;;;;;6.90;4.07;;;5.50;1.00;;;;;;4991489;28;20773;-76
2024/01/07 03:42:26;;;;;;;8.40;4.20;;;5.90;1.00;;;;;;5010497;28;20543;-76
2024/01/07 03:44:52;;;;;;;7.30;4.20;;;5.40;1.00;;;;;;5010649;28;20195;-75
2024/01/07 03:47:17;;;;;;;7.53;4.20;;;5.40;1.00;;;;;;5009698;28;20214;-76
2024/01/07 03:49:43;;;;;;;6.10;4.07;;;5.40;1.00;;;;;;4989539;28;20199;-76
2024/01/07 03:52:08;;;;;;;7.33;4.20;;;6.70;1.00;;;;;;5008426;28;20178;-76
2024/01/07 03:54:34;;;;;;;9.77;4.73;;;5.40;1.00;;;;;;4993362;28;20206;-76
2024/01/07 03:57:00;;;;;;;8.33;4.30;;;6.80;1.00;;;;;;5010006;28;20179;-75
2024/01/07 03:59:26;;;;;;;10.03;4.90;;;5.50;1.00;;;;;;5009055;28;20213;-76
2024/01/07 04:01:57;;;;;;;7.43;4.47;;;5.40;1.00;;;;;;5010288;28;20174;-74
2024/01/07 04:04:22;;;;;;;8.70;4.13;;;5.40;1.00;;;;;;5010549;28;20424;-76
2024/01/07 04:06:48;;;;;;;7.23;4.67;;;5.70;1.00;;;;;;4992881;28;20503;-74
2024/01/07 04:09:14;;;;;;;8.57;4.70;;;5.40;1.00;;;;;;5006275;28;20179;-76
2024/01/07 04:11:43;;;;;;;9.13;4.80;;;5.50;1.00;;;;;;5010369;28;20186;-75
2024/01/07 04:14:09;;;;;;;10.67;4.90;;;5.60;1.00;;;;;;5010128;28;20182;-74
2024/01/07 04:16:34;;;;;;;9.60;4.80;;;5.70;1.00;;;;;;5010003;28;20429;-75
2024/01/07 04:19:00;;;;;;;11.77;5.17;;;5.50;1.00;;;;;;5007023;28;20773;-73
2024/01/07 04:21:25;;;;;;;9.70;5.10;;;5.50;1.00;;;;;;5009739;28;20568;-74
2024/01/07 04:23:51;;;;;;;7.57;4.83;;;5.50;1.00;;;;;;5009948;28;20178;-74
2024/01/07 04:26:16;;;;;;;9.80;5.07;;;5.50;1.00;;;;;;5009561;28;20905;-74
2024/01/07 04:28:42;;;;;;;9.13;5.07;;;5.50;1.00;;;;;;5009489;28;20206;-74
2024/01/07 04:31:09;;;;;;;8.90;4.80;;;5.50;1.00;;;;;;5006976;28;20237;-73
2024/01/07 04:33:34;;;;;;;9.83;5.20;;;5.50;1.00;;;;;;4992613;28;20480;-74
2024/01/07 04:36:00;;;;;;;10.03;5.43;;;5.50;1.00;;;;;;5009943;28;20429;-76
2024/01/07 04:38:26;;;;;;;7.50;4.63;;;5.60;1.00;;;;;;5008528;28;20190;-74
2024/01/07 04:40:52;;;;;;;9.83;5.37;;;5.50;1.00;;;;;;5009570;28;20827;-75
2024/01/07 04:43:21;;;;;;;7.70;5.00;;;5.50;1.00;;;;;;5002767;28;20187;-75
2024/01/07 04:45:47;;;;;;;10.17;5.17;;;5.50;1.00;;;;;;5009697;28;20632;-75
2024/01/07 04:48:13;;;;;;;8.77;5.30;;;5.60;1.00;;;;;;5008864;28;20461;-75
2024/01/07 04:50:41;;;;;;;11.00;6.13;;;5.60;1.00;;;;;;5009633;28;20348;-75
2024/01/07 04:53:08;;;;;;;9.83;5.67;;;5.60;1.00;;;;;;5008954;28;20516;-74
2024/01/07 04:55:33;;;;;;;9.50;5.50;;;5.50;1.00;;;;;;4991962;28;20429;-74
2024/01/07 04:57:59;;;;;;;10.77;5.53;;;5.50;1.00;;;;;;4991020;28;20436;-75
2024/01/07 05:00:25;;;;;;;10.90;5.50;;;5.50;1.00;;;;;;5008999;28;20215;-75
2024/01/07 05:02:50;;;;;;;10.40;5.20;;;5.50;1.00;;;;;;5009550;28;20194;-75
2024/01/07 05:05:16;;;;;;;7.73;4.73;;;5.50;1.00;;;;;;5009270;28;20186;-73
2024/01/07 05:07:41;;;;;;;11.03;5.87;;;5.50;1.00;;;;;;4990905;28;20198;-75
2024/01/07 05:10:07;;;;;;;7.50;4.77;;;5.50;1.00;;;;;;5009050;28;20199;-75
2024/01/07 05:12:33;;;;;;;10.67;5.10;;;5.50;1.00;;;;;;5009285;28;20859;-75
2024/01/07 05:14:59;;;;;;;10.00;5.00;;;5.50;1.00;;;;;;4991775;28;20452;-75
2024/01/07 05:17:24;;;;;;;8.47;4.87;;;5.50;1.00;;;;;;5007339;28;20719;-75
2024/01/07 05:19:50;;;;;;;8.90;4.63;;;5.50;1.00;;;;;;5009419;28;20202;-75
2024/01/07 05:22:15;;;;;;;7.50;4.57;;;5.40;1.00;;;;;;5008278;28;20210;-75
2024/01/07 05:24:41;;;;;;;7.67;4.77;;;5.40;1.00;;;;;;5009313;28;20545;-75
2024/01/07 05:27:06;;;;;;;8.70;5.00;;;5.40;1.00;;;;;;5008770;28;20210;-75
2024/01/07 05:29:33;;;;;;;8.63;4.60;;;5.30;1.00;;;;;;5008911;28;20198;-76
2024/01/07 05:32:00;;;;;;;8.53;4.70;;;5.50;1.00;;;;;;5009014;28;20187;-75
2024/01/07 05:34:26;;;;;;;8.40;4.40;;;5.30;1.00;;;;;;5008122;28;20421;-75
2024/01/07 05:36:52;;;;;;;7.83;4.13;;;5.30;1.00;;;;;;5008782;28;20429;-75
2024/01/07 05:39:17;;;;;;;9.40;4.87;;;5.40;1.00;;;;;;5000680;28;20456;-75
2024/01/07 05:41:43;;;;;;;8.33;4.47;;;5.30;1.00;;;;;;5008651;28;20221;-75
2024/01/07 05:44:09;;;;;;;6.97;4.30;;;5.40;1.00;;;;;;4990885;28;20648;-73
2024/01/07 05:46:37;;;;;;;7.43;4.50;;;5.60;1.00;;;;;;5003170;28;20527;-75
2024/01/07 05:49:03;;;;;;;7.70;4.20;;;5.40;1.00;;;;;;5006309;28;20509;-75
2024/01/07 05:51:28;;;;;;;5.57;3.80;;;5.40;1.00;;;;;;5007322;28;21188;-75
2024/01/07 05:53:54;;;;;;;7.60;4.20;;;5.30;1.00;;;;;;5008905;28;20237;-75
2024/01/07 05:56:19;;;;;;;7.80;4.53;;;5.40;1.00;;;;;;5008096;28;20238;-75
2024/01/07 05:58:45;;;;;;;6.60;4.07;;;5.30;1.00;;;;;;5009009;28;20212;-75
2024/01/07 06:01:10;;;;;;;7.30;4.10;;;5.30;1.00;;;;;;5007862;28;20202;-71
2024/01/07 06:03:36;;;;;;;8.43;4.10;;;5.30;1.00;;;;;;5008234;28;20626;-74
2024/01/07 06:06:01;;;;;;;7.33;4.17;;;5.30;1.00;;;;;;4985215;28;20281;-75
2024/01/07 06:08:27;;;;;;;7.10;4.30;;;5.40;1.00;;;;;;5008471;28;20206;-74
2024/01/07 06:10:52;;;;;;;8.63;4.90;;;5.40;1.00;;;;;;5011370;28;20672;-75
2024/01/07 06:13:18;;;;;;;10.90;4.53;;;5.40;1.00;;;;;;5012336;28;20240;-76
2024/01/07 06:15:43;;;;;;;8.70;4.50;;;5.40;1.00;;;;;;5010221;28;20215;-74
2024/01/07 06:18:09;;;;;;;7.57;4.63;;;5.40;1.00;;;;;;4994865;28;20552;-74
2024/01/07 06:20:34;;;;;;;8.33;4.70;;;5.40;1.00;;;;;;5011851;28;20267;-75
2024/01/07 06:23:00;;;;;;;10.87;4.90;;;5.40;1.00;;;;;;4994601;28;20770;-75
2024/01/07 06:25:26;;;;;;;8.70;4.60;;;5.20;1.00;;;;;;4993190;28;20186;-74
2024/01/07 06:27:51;;;;;;;18.03;4.80;;;5.40;1.00;;;;;;4994490;28;20199;-75
2024/01/07 06:30:19;;;;;;;11.40;5.30;;;5.50;1.00;;;;;;4993657;28;20619;-74
2024/01/07 06:32:45;;;;;;;9.33;4.70;;;5.80;1.00;;;;;;4994746;28;20186;-75
2024/01/07 06:35:10;;;;;;;11.17;4.70;;;5.40;1.00;;;;;;4987617;28;20422;-75
2024/01/07 06:37:36;;;;;;;9.10;4.93;;;5.50;1.00;;;;;;5011277;28;20421;-75
2024/01/07 06:40:02;;;;;;;14.23;5.20;;;5.40;1.00;;;;;;5012029;28;20210;-75
2024/01/07 06:42:27;;;;;;;8.67;5.00;;;5.40;1.00;;;;;;5011488;28;20576;-74
2024/01/07 06:44:53;;;;;;;10.67;5.60;;;5.80;1.00;;;;;;5007275;28;20295;-75
2024/01/07 06:47:19;;;;;;;11.93;5.30;;;5.50;1.00;;;;;;4993725;28;20207;-75
2024/01/07 06:49:45;;;;;;;11.57;5.73;;;5.50;1.00;;;;;;5007871;28;20202;-75
2024/01/07 06:52:10;;;;;;;9.63;5.20;;;5.50;1.00;;;;;;5011692;28;20178;-75
2024/01/07 06:54:36;;;;;;;12.93;5.60;;;5.50;1.00;;;;;;5010703;28;20186;-76
2024/01/07 06:57:02;;;;;;;9.80;5.60;;;5.60;1.00;;;;;;5011897;28;20182;-75
2024/01/07 06:59:28;;;;;;;13.93;5.60;;;5.50;1.00;;;;;;5011302;28;20186;-75
2024/01/07 07:01:56;;;;;;;13.87;6.10;;;5.60;1.00;;;;;;5011686;28;20430;-76
2024/01/07 07:04:21;;;;;;;12.03;5.50;;;5.60;1.00;;;;;;5007626;28;20669;-75
2024/01/07 07:06:47;;;;;;;11.50;6.60;;;5.60;1.00;;;;;;5011284;28;20467;-75
2024/01/07 07:09:14;;;;;;;10.50;6.30;;;5.60;1.00;;;;;;5011706;28;20212;-75
2024/01/07 07:11:40;;;;;;;14.13;6.33;;;7.50;1.00;;;;;;5010922;28;20528;-75
2024/01/07 07:14:06;;;;;;;11.53;5.83;;;5.70;1.00;;;;;;5007405;28;20424;-74
2024/01/07 07:16:31;;;;;;;11.43;6.43;;;5.80;1.00;;;;;;5010676;28;20190;-75
2024/01/07 07:18:57;;;;;;;10.60;5.87;;;5.70;1.00;;;;;;5009533;28;20217;-76
2024/01/07 07:21:23;;;;;;;9.67;5.40;;;5.60;1.00;;;;;;4992341;28;20256;-75
2024/01/07 07:23:48;;;;;;;12.53;6.50;;;5.60;1.00;;;;;;5010813;28;20664;-75
2024/01/07 07:26:14;;;;;;;11.90;5.90;;;5.60;1.00;;;;;;4992680;28;20186;-75
2024/01/07 07:28:39;;;;;;;12.60;7.10;;;5.70;1.00;;;;;;4993325;28;20209;-75
2024/01/07 07:31:05;;;;;;;13.10;7.43;;;5.60;1.00;;;;;;5006423;28;20210;-74
2024/01/07 07:33:30;;;;;;;15.30;7.30;;;5.70;1.00;;;;;;5006530;28;20209;-75
2024/01/07 07:35:56;;;;;;;12.37;6.70;;;6.00;1.00;;;;;;4993056;28;20182;-75
2024/01/07 07:38:21;;;;;;;13.03;7.20;;;5.90;1.00;;;;;;5010784;28;20293;-73
2024/01/07 07:40:52;;;;;;;12.10;6.57;;;5.70;1.00;;;;;;5010160;28;20257;-75
2024/01/07 07:43:19;;;;;;;13.57;6.83;;;5.70;1.00;;;;;;5010231;28;20182;-75
2024/01/07 07:45:44;;;;;;;13.20;6.50;;;5.80;1.00;;;;;;5010815;28;20479;-74
2024/01/07 07:48:10;;;;;;;12.80;6.80;;;5.80;1.00;;;;;;5010071;28;20461;-75
2024/01/07 07:50:35;;;;;;;18.60;7.27;;;5.90;1.00;;;;;;5007879;28;20373;-74
2024/01/07 07:53:01;;;;;;;16.83;7.73;;;6.00;1.00;;;;;;5004825;28;20178;-74
2024/01/07 07:55:27;;;;;;;17.67;7.30;;;5.90;1.00;;;;;;4992452;28;20183;-76
2024/01/07 07:57:52;;;;;;;15.67;8.40;;;5.90;1.00;;;;;;4992548;28;20269;-74
2024/01/07 08:00:18;;;;;;;16.80;8.10;;;6.00;1.00;;;;;;5010026;28;20353;-74
2024/01/07 08:02:44;;;;;;;14.67;8.87;;;5.80;1.00;;;;;;5008033;28;20189;-74
2024/01/07 08:05:09;;;;;;;17.23;8.80;;;6.00;1.00;;;;;;4993010;28;20189;-75
2024/01/07 08:07:35;;;;;;;22.50;9.50;;;6.00;1.00;;;;;;4991429;28;20252;-75
2024/01/07 08:10:00;;;;;;;20.20;10.23;;;6.00;1.00;;;;;;5010387;28;20233;-75
2024/01/07 08:12:26;;;;;;;25.90;12.90;;;6.10;1.00;;;;;;5010005;28;20272;-74
2024/01/07 08:14:51;;;;;;;21.13;10.57;;;6.00;1.00;;;;;;5010475;28;20257;-75
2024/01/07 08:17:17;;;;;;;26.57;13.00;;;6.10;1.00;;;;;;5005832;28;20187;-74
2024/01/07 08:19:42;;;;;;;20.80;11.60;;;6.00;1.00;;;;;;5008847;28;20221;-73
2024/01/07 08:22:09;;;;;;;26.43;12.57;;;6.10;1.00;;;;;;5009970;28;20240;-75
2024/01/07 08:24:34;;;;;;;22.90;11.07;;;6.00;1.00;;;;;;5010054;28;20212;-75
2024/01/07 08:27:01;;;;;;;21.07;10.60;;;6.00;1.00;;;;;;5009422;28;20534;-76
2024/01/07 08:29:26;;;;;;;23.43;11.73;;;6.00;1.00;;;;;;5007215;28;20190;-75
2024/01/07 08:31:52;;;;;;;23.73;10.37;;;6.00;1.00;;;;;;5010149;28;20429;-74
2024/01/07 08:34:18;;;;;;;18.00;9.80;;;6.00;1.00;;;;;;5009224;28;20193;-74
2024/01/07 08:36:43;;;;;;;17.67;9.75;;;6.00;1.00;;;;;;5009455;28;20498;-77
2024/01/07 08:39:09;;;;;;;17.90;9.60;;;6.10;1.00;;;;;;4992305;28;20186;-76
2024/01/07 08:41:34;;;;;;;19.20;9.57;;;6.00;1.00;;;;;;5010114;28;20206;-75
2024/01/07 08:44:00;;;;;;;19.03;10.27;;;6.00;1.00;;;;;;5010940;28;20187;-75
2024/01/07 08:46:26;;;;;;;20.90;10.10;;;6.10;1.00;;;;;;5009368;28;20193;-73
2024/01/07 08:48:51;;;;;;;18.17;9.97;;;6.20;1.00;;;;;;5004942;28;20461;-75
2024/01/07 08:51:17;;;;;;;23.50;10.97;;;6.20;1.00;;;;;;5010465;28;20592;-75
2024/01/07 08:53:42;;;;;;;18.70;10.13;;;6.30;1.00;;;;;;5009996;28;20182;-77
2024/01/07 08:56:08;;;;;;;19.40;10.17;;;6.30;1.00;;;;;;4989741;28;20186;-78
2024/01/07 08:58:34;;;;;;;17.20;10.37;;;6.40;1.00;;;;;;5010126;28;20693;-75
2024/01/07 09:00:59;;;;;;;20.63;10.77;;;6.40;1.00;;;;;;5008087;28;20208;-74
2024/01/07 09:03:25;;;;;;;16.63;9.60;;;6.50;1.00;;;;;;5008489;28;20232;-76
2024/01/07 09:05:50;;;;;;;15.83;9.10;;;6.50;1.00;;;;;;4991637;28;20277;-76
2024/01/07 09:08:16;;;;;;;20.87;9.23;;;6.50;1.00;;;;;;5009818;28;20640;-75
2024/01/07 09:10:42;;;;;;;16.33;9.13;;;6.50;1.00;;;;;;4991075;28;20210;-76
2024/01/07 09:13:07;;;;;;;20.63;9.60;;;6.40;1.00;;;;;;5009975;28;20179;-75
2024/01/07 09:15:33;;;;;;;16.27;9.10;;;6.40;1.00;;;;;;5009280;28;20241;-75
2024/01/07 09:17:58;;;;;;;16.67;9.30;;;6.50;1.00;;;;;;5007723;28;20245;-76
2024/01/07 09:20:24;;;;;;;16.37;8.77;;;6.50;1.00;;;;;;5002003;28;20596;-74
2024/01/07 09:22:49;;;;;;;15.70;9.20;;;6.50;1.00;;;;;;5009671;28;20186;-75
2024/01/07 09:25:16;;;;;;;16.73;9.03;;;6.60;1.00;;;;;;4988129;28;20734;-75
2024/01/07 09:27:42;;;;;;;19.20;10.20;;;6.60;1.00;;;;;;5009427;28;20210;-75
2024/01/07 09:30:10;;;;;;;18.27;9.50;;;6.60;1.00;;;;;;5003544;28;20446;-75
2024/01/07 09:32:36;;;;;;;18.03;10.17;;;6.60;1.00;;;;;;5007843;28;20878;-76
2024/01/07 09:35:02;;;;;;;19.37;10.00;;;6.60;1.00;;;;;;4990847;28;20433;-74
2024/01/07 09:37:27;;;;;;;15.20;8.60;;;6.60;1.00;;;;;;5008985;28;20553;-76
2024/01/07 09:39:53;;;;;;;13.77;7.70;;;6.60;1.00;;;;;;4986195;28;20233;-75
2024/01/07 09:42:19;;;;;;;12.40;6.90;;;6.60;1.00;;;;;;5009508;28;20182;-75
2024/01/07 09:44:45;;;;;;;10.13;6.43;;;6.50;1.00;;;;;;4987140;28;20441;-75
2024/01/07 09:47:12;;;;;;;10.73;5.97;;;6.50;1.00;;;;;;5008552;28;20288;-75
2024/01/07 09:49:39;;;;;;;8.10;5.10;;;6.50;1.00;;;;;;4991681;28;20210;-75
2024/01/07 09:52:05;;;;;;;6.50;4.27;;;6.60;1.00;;;;;;5009734;28;20422;-76
2024/01/07 09:54:31;;;;;;;5.33;4.00;;;6.60;1.00;;;;;;4991544;28;20963;-76
2024/01/07 09:57:05;;;;;;;4.13;3.47;;;6.70;1.00;;;;;;5008452;28;20424;-74
2024/01/07 09:59:31;;;;;;;4.57;3.30;;;6.80;1.00;;;;;;4991825;28;20186;-75
2024/01/07 10:01:57;;;;;;;4.20;3.10;;;6.80;1.00;;;;;;4990939;28;20753;-75
2024/01/07 10:04:27;;;;;;;4.90;2.90;;;6.80;1.00;;;;;;5009634;28;20185;-75
2024/01/07 10:06:54;;;;;;;3.30;2.43;;;6.80;1.00;;;;;;5008945;28;20429;-75
2024/01/07 10:09:21;;;;;;;5.50;3.00;;;6.90;1.00;;;;;;4991117;28;20966;-75
2024/01/07 10:11:47;;;;;;;5.30;3.47;;;6.90;1.00;;;;;;5009177;28;20429;-75
2024/01/07 10:14:13;;;;;;;4.63;3.50;;;7.10;1.00;;;;;;5009449;28;20452;-76
2024/01/07 10:16:39;;;;;;;3.60;2.80;;;7.40;1.00;;;;;;5008903;28;20723;-76
2024/01/07 10:19:04;;;;;;;4.30;2.90;;;7.50;1.00;;;;;;4990337;28;20425;-76
2024/01/07 10:21:30;;;;;;;4.27;3.03;;;7.50;1.00;;;;;;5004243;28;20703;-75
2024/01/07 10:24:12;;;;;;;3.40;2.37;;;7.50;1.00;;;;;;5009069;28;20190;-75
2024/01/07 10:26:39;;;;;;;3.77;2.93;;;7.30;1.00;;;;;;5007771;28;20210;-76
2024/01/07 10:29:05;;;;;;;4.13;2.60;;;7.20;1.00;;;;;;5007679;28;20460;-75
2024/01/07 10:31:32;;;;;;;3.77;2.50;;;7.10;1.00;;;;;;4990320;28;20486;-76
2024/01/07 10:33:57;;;;;;;3.73;2.73;;;6.90;1.00;;;;;;5005156;28;20183;-76
2024/01/07 10:36:24;;;;;;;4.00;2.63;;;6.80;1.00;;;;;;5008144;28;20488;-75
2024/01/07 10:38:50;;;;;;;3.80;2.40;;;6.70;1.00;;;;;;5006826;28;20419;-75
2024/01/07 10:41:18;;;;;;;4.27;3.00;;;6.70;1.00;;;;;;5006345;28;20872;-75
2024/01/07 10:43:46;;;;;;;4.57;3.03;;;6.80;1.00;;;;;;5007177;28;20191;-75
2024/01/07 10:46:14;;;;;;;2.97;2.57;;;6.70;1.00;;;;;;5001578;28;20524;-76
2024/01/07 10:48:59;;;;;;;5.90;2.90;;;6.60;1.00;;;;;;5008045;28;20536;-75
2024/01/07 10:51:27;;;;;;;4.07;2.90;;;6.60;1.00;;;;;;5008387;28;20532;-75
2024/01/07 10:53:54;;;;;;;3.53;2.70;;;6.60;1.00;;;;;;5008179;28;20521;-76
2024/01/07 10:56:23;;;;;;;4.20;3.07;;;6.60;1.00;;;;;;5007236;28;20426;-76
2024/01/07 10:58:54;;;;;;;3.93;2.70;;;6.50;1.00;;;;;;5004741;28;20437;-76
2024/01/07 11:01:21;;;;;;;4.07;2.60;;;6.60;1.00;;;;;;5005957;28;20437;-75
2024/01/07 11:04:08;;;;;;;4.03;2.77;;;6.80;1.00;;;;;;5011134;28;20429;-75
2024/01/07 11:06:42;;;;;;;4.53;2.90;;;7.50;1.00;;;;;;5010554;28;20440;-75
2024/01/07 11:09:20;;;;;;;3.17;2.80;;;8.30;1.00;;;;;;5011894;28;20435;-76
2024/01/07 11:11:46;;;;;;;5.10;3.27;;;8.80;1.00;;;;;;4991993;28;20436;-75
2024/01/07 11:14:34;;;;;;;3.43;2.77;;;9.10;1.00;;;;;;5011238;28;20413;-74
2024/01/07 11:16:59;;;;;;;4.97;3.30;;;8.90;1.00;;;;;;5010912;28;20437;-74
2024/01/07 11:19:26;;;;;;;4.40;2.60;;;8.50;1.00;;;;;;5011698;28;20555;-75
2024/01/07 11:21:51;;;;;;;3.57;2.70;;;8.50;1.00;;;;;;5008646;28;20608;-75
2024/01/07 11:24:40;;;;;;;7.00;4.03;;;8.40;1.00;;;;;;5008607;28;20434;-75
2024/01/07 11:27:09;;;;;;;4.20;3.00;;;8.30;1.00;;;;;;5003129;28;20222;-75
2024/01/07 11:29:35;;;;;;;3.90;2.93;;;8.20;1.00;;;;;;5010342;28;20499;-75
2024/01/07 11:32:01;;;;;;;3.67;2.80;;;8.20;1.00;;;;;;5010102;28;20417;-76
2024/01/07 11:34:49;;;;;;;3.93;3.13;;;8.00;1.00;;;;;;5011028;28;20437;-76
2024/01/07 11:37:15;;;;;;;4.23;2.77;;;7.90;1.00;;;;;;5006760;28;20256;-76
2024/01/07 11:39:45;;;;;;;3.70;3.00;;;7.80;1.00;;;;;;5008339;28;20456;-74
2024/01/07 11:42:13;;;;;;;5.60;3.17;;;7.70;1.00;;;;;;5005794;28;20499;-75
2024/01/07 11:44:49;;;;;;;4.63;3.40;;;7.60;1.00;;;;;;5010343;28;20433;-76
2024/01/07 11:47:16;;;;;;;4.30;3.27;;;7.40;1.00;;;;;;5009917;28;20982;-76
2024/01/07 11:49:41;;;;;;;6.17;4.40;;;7.40;1.00;;;;;;5010649;28;20970;-76
2024/01/07 11:52:09;;;;;;;9.60;5.07;;;7.30;1.00;;;;;;5005241;28;20453;-75
2024/01/07 11:54:34;;;;;;;10.00;5.03;;;7.30;1.00;;;;;;4989046;28;20193;-75
2024/01/07 11:57:01;;;;;;;11.27;5.93;;;7.20;1.00;;;;;;5009026;28;20429;-75
2024/01/07 11:59:27;;;;;;;9.93;5.90;;;7.00;1.00;;;;;;5009561;28;20197;-75
2024/01/07 12:01:54;;;;;;;11.07;6.67;;;7.00;1.00;;;;;;5009380;28;20425;-75
2024/01/07 12:04:20;;;;;;;8.53;6.07;;;7.00;1.00;;;;;;5010070;28;20209;-75
2024/01/07 12:06:47;;;;;;;8.60;5.20;;;6.90;1.00;;;;;;5008228;28;20575;-75
2024/01/07 12:09:13;;;;;;;8.17;5.40;;;7.00;1.00;;;;;;4992181;28;20421;-75
2024/01/07 12:11:41;;;;;;;10.00;5.30;;;6.80;1.00;;;;;;5009751;28;20464;-75
2024/01/07 12:14:08;;;;;;;8.20;5.70;;;6.70;1.00;;;;;;4989305;28;20967;-75
2024/01/07 12:16:34;;;;;;;7.33;5.07;;;6.70;1.00;;;;;;5008011;28;20428;-75
2024/01/07 12:18:59;;;;;;;9.10;5.83;;;6.60;1.00;;;;;;5007938;28;20504;-75
2024/01/07 12:21:26;;;;;;;9.97;5.40;;;6.60;1.00;;;;;;5008270;28;20210;-75
2024/01/07 12:23:54;;;;;;;10.10;5.80;;;6.50;1.00;;;;;;5009972;28;20320;-75
2024/01/07 12:26:21;;;;;;;10.63;5.93;;;6.50;1.00;;;;;;5008366;28;20430;-75
2024/01/07 12:28:55;;;;;;;10.13;5.20;;;6.50;1.00;;;;;;5009501;28;20461;-73
2024/01/07 12:31:21;;;;;;;8.63;5.60;;;6.40;1.00;;;;;;5009731;28;20515;-75
2024/01/07 12:33:47;;;;;;;7.80;5.20;;;6.40;1.00;;;;;;5002671;28;21144;-72
2024/01/07 12:36:12;;;;;;;8.60;5.80;;;6.40;1.00;;;;;;5009807;28;20792;-76
2024/01/07 12:38:38;;;;;;;9.70;5.40;;;6.30;1.00;;;;;;5010208;28;20187;-76
2024/01/07 12:41:04;;;;;;;9.20;6.10;;;6.30;1.00;;;;;;5008514;28;20666;-75
2024/01/07 12:43:30;;;;;;;8.70;5.67;;;6.20;1.00;;;;;;5009981;28;20634;-75
2024/01/07 12:45:56;;;;;;;9.70;6.03;;;6.20;1.00;;;;;;5005628;28;20544;-75
2024/01/07 12:48:22;;;;;;;8.73;5.70;;;6.10;1.00;;;;;;5007610;28;20202;-75
2024/01/07 12:50:48;;;;;;;12.87;6.20;;;6.10;1.00;;;;;;5003114;28;20477;-73
2024/01/07 12:53:14;;;;;;;9.00;6.27;;;6.10;1.00;;;;;;5009973;28;20186;-75
2024/01/07 12:55:40;;;;;;;10.23;6.07;;;6.10;1.00;;;;;;5009400;28;20421;-75